createdAt,value
2019-04-29T00:00:50.369Z,62.20
2019-04-29T00:01:29.560Z,62.40
2019-04-29T00:02:10.274Z,62.40
2019-04-29T00:02:49.002Z,62.50
2019-04-29T00:03:27.664Z,62.50
2019-04-29T00:04:06.361Z,62.70
2019-04-29T00:04:45.065Z,62.70
2019-04-29T00:05:23.674Z,62.70
2019-04-29T00:06:02.373Z,62.70
2019-04-29T00:06:41.082Z,62.90
2019-04-29T00:07:20.047Z,62.90
2019-04-29T00:07:58.727Z,63.00
2019-04-29T00:08:37.404Z,63.30
2019-04-29T00:09:19.804Z,63.30
2019-04-29T00:09:58.514Z,63.50
2019-04-29T00:10:37.112Z,63.60
2019-04-29T00:11:15.730Z,63.70
2019-04-29T00:11:54.458Z,63.80
2019-04-29T00:12:33.918Z,63.80
2019-04-29T00:13:12.710Z,63.90
2019-04-29T00:13:51.379Z,64.10
2019-04-29T00:14:30.134Z,64.00
2019-04-29T00:15:27.189Z,64.10
2019-04-29T00:16:26.852Z,64.50
2019-04-29T00:17:20.162Z,64.50
2019-04-29T00:18:02.250Z,64.70
2019-04-29T00:18:50.432Z,65.00
2019-04-29T00:19:47.108Z,65.10
2019-04-29T00:20:37.417Z,65.40
2019-04-29T00:21:16.000Z,65.60
2019-04-29T00:21:54.719Z,65.70
2019-04-29T00:22:33.471Z,65.80
2019-04-29T00:23:12.237Z,66.00
2019-04-29T00:24:03.224Z,66.10
2019-04-29T00:24:31.103Z,66.10
2019-04-29T00:25:09.848Z,66.20
2019-04-29T00:25:48.560Z,66.20
2019-04-29T00:26:27.287Z,66.40
2019-04-29T00:27:06.009Z,66.50
2019-04-29T00:27:44.676Z,66.50
2019-04-29T00:28:23.561Z,66.60
2019-04-29T00:29:02.352Z,66.90
2019-04-29T00:29:41.047Z,66.80
2019-04-29T00:30:22.767Z,66.90
2019-04-29T00:31:01.426Z,67.00
2019-04-29T00:31:40.123Z,67.00
2019-04-29T00:32:18.781Z,67.00
2019-04-29T00:33:00.068Z,67.00
2019-04-29T00:33:38.738Z,67.30
2019-04-29T00:34:17.382Z,67.40
2019-04-29T00:34:59.098Z,67.40
2019-04-29T00:35:37.781Z,67.60
2019-04-29T00:36:16.617Z,67.60
2019-04-29T00:37:04.603Z,67.60
2019-04-29T00:38:04.280Z,68.00
2019-04-29T00:38:58.705Z,68.10
2019-04-29T00:40:00.159Z,68.50
2019-04-29T00:40:56.852Z,69.00
2019-04-29T00:41:45.703Z,68.70
2019-04-29T00:42:43.995Z,69.20
2019-04-29T00:43:40.612Z,70.00
2019-04-29T00:44:19.528Z,70.10
2019-04-29T00:44:58.278Z,70.60
2019-04-29T00:45:36.960Z,70.80
2019-04-29T00:46:15.703Z,71.00
2019-04-29T00:46:54.361Z,71.10
2019-04-29T00:47:33.004Z,70.80
2019-04-29T00:48:11.632Z,71.20
2019-04-29T00:48:50.376Z,71.90
2019-04-29T00:49:29.028Z,71.50
2019-04-29T00:50:07.812Z,72.10
2019-04-29T00:50:46.508Z,73.20
2019-04-29T00:51:25.276Z,72.10
2019-04-29T00:52:04.027Z,72.10
2019-04-29T00:52:42.709Z,73.00
2019-04-29T00:53:21.473Z,79.10
2019-04-29T00:54:07.571Z,80.40
2019-04-29T00:54:51.446Z,81.40
2019-04-29T00:55:30.890Z,82.40
2019-04-29T00:56:09.449Z,83.40
2019-04-29T00:56:48.153Z,84.60
2019-04-29T00:57:26.723Z,85.20
2019-04-29T00:58:05.465Z,85.70
2019-04-29T00:58:44.261Z,86.10
2019-04-29T00:59:22.954Z,86.30
2019-04-29T01:00:01.622Z,86.80
2019-04-29T01:00:41.431Z,87.20
2019-04-29T01:01:24.646Z,87.80
2019-04-29T01:02:03.324Z,88.30
2019-04-29T01:02:42.046Z,88.90
2019-04-29T01:03:20.733Z,89.30
2019-04-29T01:03:59.448Z,89.80
2019-04-29T01:04:38.114Z,90.10
2019-04-29T01:05:16.865Z,90.40
2019-04-29T01:05:55.517Z,90.80
2019-04-29T01:06:34.176Z,90.70
2019-04-29T01:07:12.875Z,90.70
2019-04-29T01:07:51.690Z,91.00
2019-04-29T01:08:30.533Z,90.90
2019-04-29T01:09:11.889Z,91.10
2019-04-29T01:09:50.572Z,91.20
2019-04-29T01:10:29.292Z,91.30
2019-04-29T01:11:08.041Z,91.30
2019-04-29T01:11:46.653Z,91.60
2019-04-29T01:12:25.375Z,91.50
2019-04-29T01:13:04.055Z,91.60
2019-04-29T01:13:42.745Z,91.70
2019-04-29T01:14:21.409Z,91.80
2019-04-29T01:15:02.947Z,91.80
2019-04-29T01:15:41.699Z,92.00
2019-04-29T01:16:20.350Z,92.10
2019-04-29T01:16:59.015Z,92.20
2019-04-29T01:17:37.709Z,92.30
2019-04-29T01:18:16.396Z,92.30
2019-04-29T01:18:55.019Z,92.30
2019-04-29T01:19:33.744Z,92.40
2019-04-29T01:20:12.409Z,92.50
2019-04-29T01:20:51.023Z,92.60
2019-04-29T01:21:29.692Z,92.50
2019-04-29T01:22:08.436Z,92.50
2019-04-29T01:22:47.130Z,92.50
2019-04-29T01:23:26.320Z,92.50
2019-04-29T01:24:04.961Z,92.50
2019-04-29T01:24:44.119Z,92.60
2019-04-29T01:25:23.072Z,92.50
2019-04-29T01:26:05.057Z,92.50
2019-04-29T01:27:00.209Z,92.60
2019-04-29T01:27:44.026Z,92.50
2019-04-29T01:28:36.067Z,92.70
2019-04-29T01:29:15.383Z,92.80
2019-04-29T01:29:54.165Z,92.70
2019-04-29T01:30:57.389Z,92.80
2019-04-29T01:31:36.080Z,92.80
2019-04-29T01:32:15.356Z,93.10
2019-04-29T01:32:54.145Z,92.80
2019-04-29T01:33:33.134Z,92.70
2019-04-29T01:34:17.331Z,92.80
2019-04-29T01:34:57.177Z,92.80
2019-04-29T01:35:35.984Z,92.80
2019-04-29T01:36:33.319Z,92.80
2019-04-29T01:37:12.051Z,92.80
2019-04-29T01:37:50.721Z,92.90
2019-04-29T01:38:29.593Z,92.90
2019-04-29T01:39:09.507Z,93.00
2019-04-29T01:39:53.528Z,93.00
2019-04-29T01:40:49.162Z,92.90
2019-04-29T01:41:28.971Z,93.00
2019-04-29T01:42:31.413Z,93.10
2019-04-29T01:43:10.208Z,93.20
2019-04-29T01:44:01.873Z,93.10
2019-04-29T01:44:40.940Z,93.10
2019-04-29T01:45:19.655Z,93.10
2019-04-29T01:45:58.415Z,93.10
2019-04-29T01:46:37.060Z,93.20
2019-04-29T01:47:15.799Z,93.50
2019-04-29T01:47:54.467Z,93.20
2019-04-29T01:48:33.187Z,93.20
2019-04-29T01:49:11.809Z,93.20
2019-04-29T01:49:50.556Z,93.30
2019-04-29T01:50:29.270Z,93.30
2019-04-29T01:51:08.004Z,93.30
2019-04-29T01:51:46.652Z,93.40
2019-04-29T01:52:25.303Z,93.40
2019-04-29T01:53:03.978Z,93.40
2019-04-29T01:53:42.609Z,93.40
2019-04-29T01:54:21.296Z,93.40
2019-04-29T01:54:59.891Z,93.30
2019-04-29T01:55:38.591Z,93.30
2019-04-29T01:56:17.337Z,93.30
2019-04-29T01:56:56.092Z,93.30
2019-04-29T01:57:34.787Z,93.30
2019-04-29T01:58:13.481Z,93.50
2019-04-29T01:58:52.186Z,93.30
2019-04-29T01:59:30.902Z,93.30
2019-04-29T02:00:12.357Z,93.30
2019-04-29T02:00:51.319Z,93.30
2019-04-29T02:01:29.995Z,93.30
2019-04-29T02:02:09.043Z,93.30
2019-04-29T02:02:47.841Z,93.20
2019-04-29T02:03:26.607Z,93.20
2019-04-29T02:04:05.502Z,93.20
2019-04-29T02:04:44.239Z,93.20
2019-04-29T02:05:22.892Z,93.10
2019-04-29T02:06:01.582Z,93.00
2019-04-29T02:06:40.275Z,92.90
2019-04-29T02:07:19.053Z,92.80
2019-04-29T02:07:57.811Z,92.70
2019-04-29T02:08:36.516Z,92.50
2019-04-29T02:09:21.278Z,92.50
2019-04-29T02:10:15.623Z,92.50
2019-04-29T02:10:57.061Z,92.60
2019-04-29T02:11:35.659Z,92.70
2019-04-29T02:12:15.352Z,92.80
2019-04-29T02:12:54.049Z,93.00
2019-04-29T02:13:32.743Z,93.00
2019-04-29T02:14:11.373Z,93.10
2019-04-29T02:14:50.068Z,93.10
2019-04-29T02:15:28.714Z,93.00
2019-04-29T02:16:07.360Z,92.90
2019-04-29T02:16:46.036Z,92.80
2019-04-29T02:17:24.787Z,92.70
2019-04-29T02:18:03.518Z,92.60
2019-04-29T02:18:42.295Z,92.60
2019-04-29T02:19:21.005Z,93.80
2019-04-29T02:19:59.712Z,93.60
2019-04-29T02:20:38.439Z,93.60
2019-04-29T02:21:17.147Z,93.50
2019-04-29T02:22:15.765Z,93.40
2019-04-29T02:23:12.487Z,93.30
2019-04-29T02:24:02.265Z,93.30
2019-04-29T02:24:42.459Z,93.20
2019-04-29T02:25:29.645Z,93.20
2019-04-29T02:26:08.434Z,93.20
2019-04-29T02:26:47.204Z,93.10
2019-04-29T02:27:25.965Z,93.00
2019-04-29T02:28:04.654Z,93.00
2019-04-29T02:28:43.380Z,93.20
2019-04-29T02:29:22.031Z,93.30
2019-04-29T02:30:00.773Z,93.20
2019-04-29T02:30:45.301Z,93.20
2019-04-29T02:31:43.703Z,93.20
2019-04-29T02:32:22.410Z,93.20
2019-04-29T02:33:01.237Z,93.10
2019-04-29T02:33:39.939Z,93.10
2019-04-29T02:34:20.121Z,93.10
2019-04-29T02:34:58.865Z,93.00
2019-04-29T02:35:37.574Z,93.10
2019-04-29T02:36:16.248Z,93.10
2019-04-29T02:36:54.977Z,93.10
2019-04-29T02:37:37.195Z,93.00
2019-04-29T02:38:23.711Z,93.10
2019-04-29T02:39:35.646Z,93.20
2019-04-29T02:40:21.566Z,93.30
2019-04-29T02:41:07.345Z,93.30
2019-04-29T02:42:13.081Z,93.30
2019-04-29T02:43:03.463Z,93.50
2019-04-29T02:43:42.666Z,93.50
2019-04-29T02:44:21.371Z,93.70
2019-04-29T02:45:03.459Z,94.00
2019-04-29T02:45:42.094Z,94.00
2019-04-29T02:46:20.794Z,94.00
2019-04-29T02:47:01.852Z,94.10
2019-04-29T02:47:40.521Z,94.20
2019-04-29T02:48:19.199Z,94.30
2019-04-29T02:48:58.087Z,94.20
2019-04-29T02:49:36.769Z,94.20
2019-04-29T02:50:15.473Z,94.20
2019-04-29T02:50:54.184Z,94.30
2019-04-29T02:51:47.094Z,94.40
2019-04-29T02:52:25.834Z,94.30
2019-04-29T02:53:04.556Z,94.60
2019-04-29T02:53:43.288Z,94.60
2019-04-29T02:54:21.982Z,94.40
2019-04-29T02:55:02.138Z,94.70
2019-04-29T02:55:44.827Z,94.40
2019-04-29T02:56:23.542Z,94.60
2019-04-29T02:57:07.209Z,94.50
2019-04-29T02:58:00.315Z,94.50
2019-04-29T02:58:44.475Z,94.40
2019-04-29T02:59:27.065Z,94.60
2019-04-29T03:00:14.729Z,94.70
2019-04-29T03:01:11.395Z,94.60
2019-04-29T03:01:57.337Z,94.80
2019-04-29T03:02:59.837Z,94.60
2019-04-29T03:03:54.660Z,94.60
2019-04-29T03:04:36.974Z,94.90
2019-04-29T03:05:21.555Z,94.50
2019-04-29T03:06:02.567Z,94.70
2019-04-29T03:06:41.289Z,94.70
2019-04-29T03:07:19.950Z,94.70
2019-04-29T03:07:58.540Z,94.60
2019-04-29T03:08:37.328Z,94.40
2019-04-29T03:09:16.008Z,94.50
2019-04-29T03:09:54.730Z,94.40
2019-04-29T03:10:33.432Z,94.50
2019-04-29T03:11:12.047Z,94.40
2019-04-29T03:11:50.775Z,94.50
2019-04-29T03:12:30.122Z,94.30
2019-04-29T03:13:08.865Z,94.40
2019-04-29T03:13:47.550Z,94.20
2019-04-29T03:14:26.274Z,94.10
2019-04-29T03:15:05.007Z,94.20
2019-04-29T03:15:44.916Z,94.00
2019-04-29T03:16:24.330Z,93.90
2019-04-29T03:17:03.036Z,93.80
2019-04-29T03:17:41.794Z,93.80
2019-04-29T03:18:21.120Z,93.70
2019-04-29T03:19:06.662Z,93.70
2019-04-29T03:20:03.406Z,93.60
2019-04-29T03:20:50.907Z,93.30
2019-04-29T03:21:53.186Z,93.20
2019-04-29T03:22:31.887Z,93.20
2019-04-29T03:23:15.908Z,93.10
2019-04-29T03:23:54.637Z,92.90
2019-04-29T03:24:33.398Z,92.90
2019-04-29T03:25:12.750Z,92.80
2019-04-29T03:25:51.704Z,92.90
2019-04-29T03:26:30.375Z,92.90
2019-04-29T03:27:09.072Z,92.90
2019-04-29T03:27:47.743Z,92.90
2019-04-29T03:28:26.512Z,92.80
2019-04-29T03:29:06.476Z,92.90
2019-04-29T03:29:45.137Z,93.00
2019-04-29T03:30:24.078Z,92.90
2019-04-29T03:31:02.785Z,92.90
2019-04-29T03:31:41.557Z,92.80
2019-04-29T03:32:20.405Z,92.70
2019-04-29T03:32:59.067Z,92.80
2019-04-29T03:33:37.761Z,92.70
2019-04-29T03:34:16.443Z,92.70
2019-04-29T03:34:55.123Z,92.50
2019-04-29T03:35:33.931Z,92.40
2019-04-29T03:36:12.719Z,92.40
2019-04-29T03:36:51.398Z,92.20
2019-04-29T03:37:30.373Z,92.20
2019-04-29T03:38:09.125Z,92.20
2019-04-29T03:38:47.825Z,92.10
2019-04-29T03:39:26.573Z,92.10
2019-04-29T03:40:05.300Z,92.00
2019-04-29T03:40:43.956Z,92.00
2019-04-29T03:41:22.702Z,91.90
2019-04-29T03:42:01.365Z,92.00
2019-04-29T03:42:40.089Z,92.00
2019-04-29T03:43:18.853Z,92.00
2019-04-29T03:43:57.506Z,91.90
2019-04-29T03:44:36.155Z,91.70
2019-04-29T03:45:14.886Z,91.80
2019-04-29T03:45:53.929Z,91.80
2019-04-29T03:46:32.585Z,91.60
2019-04-29T03:47:11.202Z,91.70
2019-04-29T03:47:49.886Z,91.60
2019-04-29T03:48:28.788Z,91.60
2019-04-29T03:49:07.515Z,91.60
2019-04-29T03:49:46.206Z,91.50
2019-04-29T03:50:24.856Z,91.50
2019-04-29T03:51:03.608Z,91.60
2019-04-29T03:51:42.302Z,91.40
2019-04-29T03:52:21.042Z,91.40
2019-04-29T03:52:59.955Z,91.30
2019-04-29T03:53:38.870Z,91.30
2019-04-29T03:54:17.686Z,91.10
2019-04-29T03:54:56.420Z,91.10
2019-04-29T03:55:40.020Z,90.90
2019-04-29T03:56:15.686Z,90.80
2019-04-29T03:56:54.717Z,90.70
2019-04-29T03:57:37.531Z,90.70
2019-04-29T03:58:16.488Z,90.70
2019-04-29T03:58:55.453Z,90.70
2019-04-29T03:59:34.452Z,90.60
2019-04-29T04:00:14.565Z,90.70
2019-04-29T04:00:55.936Z,90.60
2019-04-29T04:01:42.006Z,90.60
2019-04-29T04:02:41.594Z,90.60
2019-04-29T04:03:27.164Z,90.50
2019-04-29T04:04:14.129Z,90.40
2019-04-29T04:05:09.169Z,90.40
2019-04-29T04:06:06.125Z,90.40
2019-04-29T04:06:51.806Z,90.30
2019-04-29T04:07:40.358Z,90.30
2019-04-29T04:08:33.829Z,90.30
2019-04-29T04:09:17.950Z,90.30
2019-04-29T04:10:00.027Z,90.40
2019-04-29T04:10:39.113Z,90.40
2019-04-29T04:11:17.859Z,90.40
2019-04-29T04:11:56.569Z,90.30
2019-04-29T04:12:35.709Z,90.20
2019-04-29T04:13:14.494Z,90.20
2019-04-29T04:13:53.235Z,90.10
2019-04-29T04:14:32.092Z,90.30
2019-04-29T04:15:10.951Z,90.20
2019-04-29T04:15:49.745Z,90.20
2019-04-29T04:16:46.388Z,90.30
2019-04-29T04:17:42.372Z,90.00
2019-04-29T04:18:26.969Z,90.10
2019-04-29T04:19:09.993Z,90.00
2019-04-29T04:19:49.057Z,90.00
2019-04-29T04:20:27.819Z,90.10
2019-04-29T04:21:06.580Z,90.10
2019-04-29T04:21:45.376Z,90.00
2019-04-29T04:22:24.045Z,90.10
2019-04-29T04:23:03.103Z,90.00
2019-04-29T04:23:41.773Z,90.20
2019-04-29T04:24:20.673Z,90.10
2019-04-29T04:24:59.404Z,90.30
2019-04-29T04:25:38.162Z,90.10
2019-04-29T04:26:16.890Z,90.30
2019-04-29T04:26:55.538Z,90.20
2019-04-29T04:27:34.217Z,90.30
2019-04-29T04:28:12.952Z,90.20
2019-04-29T04:28:51.777Z,90.20
2019-04-29T04:29:30.561Z,90.20
2019-04-29T04:30:10.041Z,90.30
2019-04-29T04:30:48.775Z,90.20
2019-04-29T04:31:27.611Z,90.40
2019-04-29T04:32:06.319Z,90.20
2019-04-29T04:32:44.994Z,90.30
2019-04-29T04:33:23.937Z,90.30
2019-04-29T04:34:02.587Z,90.20
2019-04-29T04:34:41.316Z,90.20
2019-04-29T04:35:20.029Z,90.10
2019-04-29T04:35:58.693Z,90.10
2019-04-29T04:36:37.647Z,90.20
2019-04-29T04:37:16.281Z,90.00
2019-04-29T04:37:55.041Z,90.00
2019-04-29T04:38:33.807Z,90.10
2019-04-29T04:39:12.997Z,90.00
2019-04-29T04:39:51.657Z,90.00
2019-04-29T04:40:51.537Z,89.80
2019-04-29T04:41:30.199Z,90.00
2019-04-29T04:42:08.854Z,90.00
2019-04-29T04:42:47.614Z,89.30
2019-04-29T04:43:26.223Z,90.00
2019-04-29T04:44:04.865Z,90.00
2019-04-29T04:44:52.536Z,89.70
2019-04-29T04:45:31.188Z,89.70
2019-04-29T04:46:09.838Z,89.80
2019-04-29T04:46:48.640Z,89.80
2019-04-29T04:47:27.394Z,89.60
2019-04-29T04:48:06.070Z,89.70
2019-04-29T04:48:44.933Z,89.50
2019-04-29T04:49:23.543Z,89.80
2019-04-29T04:50:02.250Z,89.50
2019-04-29T04:50:40.917Z,89.80
2019-04-29T04:51:19.565Z,89.40
2019-04-29T04:51:58.273Z,89.70
2019-04-29T04:52:36.956Z,89.60
2019-04-29T04:53:15.664Z,89.50
2019-04-29T04:53:54.308Z,90.00
2019-04-29T04:54:33.057Z,88.70
2019-04-29T04:55:11.881Z,90.00
2019-04-29T04:55:51.218Z,89.50
2019-04-29T04:56:29.924Z,89.70
2019-04-29T04:57:08.635Z,89.60
2019-04-29T04:57:47.361Z,90.00
2019-04-29T04:58:26.078Z,89.90
2019-04-29T04:59:04.781Z,89.40
2019-04-29T04:59:43.404Z,90.00
2019-04-29T05:00:23.810Z,89.90
2019-04-29T05:01:02.479Z,89.50
2019-04-29T05:01:41.379Z,89.50
2019-04-29T05:02:20.080Z,89.60
2019-04-29T05:02:59.921Z,89.50
2019-04-29T05:03:38.561Z,89.40
2019-04-29T05:04:17.314Z,89.30
2019-04-29T05:04:55.928Z,89.40
2019-04-29T05:05:35.031Z,89.50
2019-04-29T05:06:13.685Z,89.10
2019-04-29T05:06:52.335Z,89.60
2019-04-29T05:07:31.027Z,88.90
2019-04-29T05:08:09.748Z,89.50
2019-04-29T05:08:48.396Z,88.90
2019-04-29T05:09:27.062Z,89.40
2019-04-29T05:10:05.756Z,89.40
2019-04-29T05:10:44.407Z,89.40
2019-04-29T05:11:23.106Z,89.20
2019-04-29T05:12:01.848Z,89.50
2019-04-29T05:12:40.521Z,89.30
2019-04-29T05:13:27.891Z,89.60
2019-04-29T05:13:59.374Z,89.60
2019-04-29T05:14:38.090Z,89.50
2019-04-29T05:15:16.735Z,89.80
2019-04-29T05:15:55.424Z,89.70
2019-04-29T05:16:34.160Z,89.40
2019-04-29T05:17:12.792Z,89.60
2019-04-29T05:17:53.126Z,89.60
2019-04-29T05:18:31.569Z,89.70
2019-04-29T05:19:10.184Z,89.50
2019-04-29T05:19:48.912Z,89.70
2019-04-29T05:20:27.662Z,89.30
2019-04-29T05:21:06.316Z,89.70
2019-04-29T05:21:44.969Z,89.30
2019-04-29T05:22:23.708Z,89.70
2019-04-29T05:23:02.322Z,89.20
2019-04-29T05:23:41.747Z,89.70
2019-04-29T05:24:20.534Z,89.50
2019-04-29T05:24:59.234Z,89.60
2019-04-29T05:25:38.098Z,89.50
2019-04-29T05:26:16.758Z,89.40
2019-04-29T05:26:55.499Z,89.50
2019-04-29T05:27:34.241Z,89.30
2019-04-29T05:28:12.898Z,89.10
2019-04-29T05:28:51.629Z,89.30
2019-04-29T05:29:30.391Z,89.10
2019-04-29T05:30:09.298Z,89.30
2019-04-29T05:30:47.945Z,89.10
2019-04-29T05:31:26.630Z,89.20
2019-04-29T05:32:05.351Z,89.20
2019-04-29T05:32:44.139Z,89.30
2019-04-29T05:33:22.843Z,88.90
2019-04-29T05:34:01.541Z,88.90
2019-04-29T05:34:41.764Z,89.10
2019-04-29T05:35:24.831Z,89.10
2019-04-29T05:36:10.096Z,88.60
2019-04-29T05:37:06.775Z,88.90
2019-04-29T05:38:05.585Z,88.80
2019-04-29T05:38:50.752Z,88.90
2019-04-29T05:39:35.209Z,88.90
2019-04-29T05:40:15.118Z,88.90
2019-04-29T05:40:56.814Z,88.50
2019-04-29T05:41:35.147Z,88.50
2019-04-29T05:42:17.041Z,88.90
2019-04-29T05:42:54.418Z,88.70
2019-04-29T05:43:50.366Z,88.50
2019-04-29T05:44:48.853Z,88.40
2019-04-29T05:45:36.095Z,88.70
2019-04-29T05:46:39.702Z,88.70
2019-04-29T05:47:28.571Z,88.80
2019-04-29T05:48:12.274Z,88.80
2019-04-29T05:48:51.334Z,88.50
2019-04-29T05:49:37.396Z,88.20
2019-04-29T05:50:52.159Z,88.40
2019-04-29T05:51:36.224Z,88.70
2019-04-29T05:52:34.692Z,88.40
2019-04-29T05:53:20.892Z,88.10
2019-04-29T05:54:00.867Z,88.20
2019-04-29T05:54:39.487Z,88.40
2019-04-29T05:55:18.209Z,88.50
2019-04-29T05:55:56.952Z,88.50
2019-04-29T05:56:35.581Z,88.80
2019-04-29T05:57:14.267Z,88.30
2019-04-29T05:57:55.872Z,87.90
2019-04-29T05:58:37.454Z,88.70
2019-04-29T05:59:13.967Z,88.90
2019-04-29T05:59:52.695Z,89.00
2019-04-29T06:00:31.539Z,88.40
2019-04-29T06:01:14.835Z,88.40
2019-04-29T06:01:53.676Z,88.70
2019-04-29T06:02:36.350Z,88.50
2019-04-29T06:03:12.352Z,88.40
2019-04-29T06:03:51.032Z,88.20
2019-04-29T06:04:29.686Z,88.30
2019-04-29T06:05:08.352Z,88.10
2019-04-29T06:05:47.087Z,88.90
2019-04-29T06:06:25.690Z,88.70
2019-04-29T06:07:04.353Z,88.50
2019-04-29T06:07:43.067Z,88.50
2019-04-29T06:08:21.723Z,88.80
2019-04-29T06:09:00.367Z,88.70
2019-04-29T06:09:39.088Z,89.30
2019-04-29T06:10:18.041Z,88.90
2019-04-29T06:10:57.934Z,88.90
2019-04-29T06:11:36.566Z,87.90
2019-04-29T06:12:15.432Z,88.50
2019-04-29T06:12:54.093Z,89.50
2019-04-29T06:13:32.790Z,89.60
2019-04-29T06:14:11.515Z,89.00
2019-04-29T06:14:50.204Z,89.00
2019-04-29T06:15:28.896Z,88.90
2019-04-29T06:16:07.657Z,88.70
2019-04-29T06:16:46.286Z,89.60
2019-04-29T06:17:24.968Z,89.50
2019-04-29T06:18:03.697Z,90.10
2019-04-29T06:18:42.362Z,89.00
2019-04-29T06:19:21.077Z,89.10
2019-04-29T06:19:59.738Z,89.50
2019-04-29T06:20:38.473Z,89.90
2019-04-29T06:21:17.228Z,89.80
2019-04-29T06:21:55.860Z,89.70
2019-04-29T06:22:37.820Z,90.10
2019-04-29T06:23:14.635Z,90.00
2019-04-29T06:23:54.722Z,90.20
2019-04-29T06:24:36.935Z,90.20
2019-04-29T06:25:13.349Z,90.10
2019-04-29T06:25:52.175Z,90.00
2019-04-29T06:26:30.823Z,88.70
2019-04-29T06:27:09.462Z,89.00
2019-04-29T06:27:48.129Z,90.00
2019-04-29T06:28:28.170Z,90.00
2019-04-29T06:29:07.291Z,90.10
2019-04-29T06:29:45.903Z,90.30
2019-04-29T06:30:24.712Z,90.30
2019-04-29T06:31:03.347Z,89.70
2019-04-29T06:31:41.989Z,88.60
2019-04-29T06:32:24.871Z,90.00
2019-04-29T06:33:00.698Z,89.70
2019-04-29T06:33:39.343Z,90.30
2019-04-29T06:34:17.996Z,90.20
2019-04-29T06:34:56.666Z,90.10
2019-04-29T06:35:35.357Z,90.10
2019-04-29T06:36:14.231Z,89.80
2019-04-29T06:36:52.920Z,89.30
2019-04-29T06:37:31.648Z,89.70
2019-04-29T06:38:10.430Z,89.60
2019-04-29T06:38:49.101Z,90.00
2019-04-29T06:39:27.748Z,90.00
2019-04-29T06:40:06.457Z,89.60
2019-04-29T06:40:45.154Z,88.80
2019-04-29T06:41:23.802Z,89.70
2019-04-29T06:42:02.498Z,89.20
2019-04-29T06:42:41.157Z,89.90
2019-04-29T06:43:19.838Z,89.30
2019-04-29T06:44:00.690Z,89.50
2019-04-29T06:44:38.592Z,88.60
2019-04-29T06:45:17.453Z,89.00
2019-04-29T06:45:56.085Z,89.30
2019-04-29T06:46:34.873Z,88.90
2019-04-29T06:47:16.683Z,88.70
2019-04-29T06:47:53.466Z,88.30
2019-04-29T06:48:32.135Z,88.30
2019-04-29T06:49:11.014Z,88.90
2019-04-29T06:49:49.865Z,88.60
2019-04-29T06:50:28.566Z,88.30
2019-04-29T06:51:07.354Z,88.10
2019-04-29T06:51:45.968Z,87.00
2019-04-29T06:52:24.700Z,87.20
2019-04-29T06:53:04.398Z,87.90
2019-04-29T06:53:43.208Z,87.80
2019-04-29T06:54:21.862Z,87.80
2019-04-29T06:55:00.574Z,87.70
2019-04-29T06:55:39.235Z,88.00
2019-04-29T06:56:17.940Z,88.20
2019-04-29T06:56:56.634Z,87.80
2019-04-29T06:57:35.293Z,88.10
2019-04-29T06:58:13.975Z,87.30
2019-04-29T06:58:52.681Z,87.00
2019-04-29T06:59:31.299Z,87.20
2019-04-29T07:00:10.524Z,87.90
2019-04-29T07:00:50.886Z,87.50
2019-04-29T07:01:32.987Z,86.40
2019-04-29T07:02:14.041Z,87.70
2019-04-29T07:02:49.830Z,87.50
2019-04-29T07:03:29.368Z,86.80
2019-04-29T07:04:08.088Z,87.00
2019-04-29T07:04:46.773Z,86.30
2019-04-29T07:05:25.488Z,87.20
2019-04-29T07:06:04.195Z,87.00
2019-04-29T07:06:56.444Z,87.10
2019-04-29T07:07:22.994Z,88.10
2019-04-29T07:08:01.680Z,88.20
2019-04-29T07:08:40.447Z,88.30
2019-04-29T07:09:19.141Z,88.70
2019-04-29T07:09:57.904Z,88.30
2019-04-29T07:10:36.608Z,88.10
2019-04-29T07:11:15.362Z,88.00
2019-04-29T07:12:01.053Z,87.60
2019-04-29T07:12:34.077Z,87.90
2019-04-29T07:13:12.801Z,87.20
2019-04-29T07:13:53.491Z,87.00
2019-04-29T07:14:32.921Z,88.00
2019-04-29T07:15:12.293Z,88.20
2019-04-29T07:15:51.625Z,88.40
2019-04-29T07:16:32.053Z,87.80
2019-04-29T07:17:10.327Z,88.10
2019-04-29T07:17:48.925Z,89.30
2019-04-29T07:18:27.582Z,87.90
2019-04-29T07:19:06.269Z,88.50
2019-04-29T07:19:44.964Z,88.60
2019-04-29T07:20:23.700Z,87.60
2019-04-29T07:21:02.385Z,88.30
2019-04-29T07:21:41.836Z,88.80
2019-04-29T07:22:25.597Z,88.80
2019-04-29T07:23:02.420Z,88.10
2019-04-29T07:23:41.292Z,88.10
2019-04-29T07:24:20.425Z,88.10
2019-04-29T07:24:59.236Z,88.50
2019-04-29T07:25:37.906Z,88.60
2019-04-29T07:26:16.574Z,88.40
2019-04-29T07:26:57.895Z,88.60
2019-04-29T07:27:42.969Z,88.00
2019-04-29T07:28:18.285Z,87.70
2019-04-29T07:28:57.922Z,87.00
2019-04-29T07:29:38.017Z,87.00
2019-04-29T07:30:16.618Z,87.50
2019-04-29T07:31:03.043Z,86.40
2019-04-29T07:31:35.308Z,87.00
2019-04-29T07:32:13.912Z,86.80
2019-04-29T07:32:52.634Z,87.00
2019-04-29T07:33:31.255Z,86.70
2019-04-29T07:34:10.250Z,86.40
2019-04-29T07:34:48.934Z,85.80
2019-04-29T07:35:27.711Z,85.50
2019-04-29T07:36:11.105Z,85.60
2019-04-29T07:36:46.364Z,85.40
2019-04-29T07:37:25.007Z,85.40
2019-04-29T07:38:04.519Z,85.00
2019-04-29T07:38:46.426Z,85.10
2019-04-29T07:39:26.743Z,85.20
2019-04-29T07:40:07.892Z,84.80
2019-04-29T07:40:44.634Z,85.40
2019-04-29T07:41:23.343Z,85.10
2019-04-29T07:42:03.426Z,84.80
2019-04-29T07:42:42.177Z,84.60
2019-04-29T07:43:20.863Z,83.70
2019-04-29T07:43:59.539Z,84.70
2019-04-29T07:45:07.957Z,84.10
2019-04-29T07:45:58.730Z,84.30
2019-04-29T07:46:55.998Z,84.00
2019-04-29T07:47:24.990Z,84.00
2019-04-29T07:48:06.371Z,84.20
2019-04-29T07:48:43.789Z,84.60
2019-04-29T07:49:22.579Z,84.00
2019-04-29T07:50:01.310Z,83.10
2019-04-29T07:50:40.060Z,83.60
2019-04-29T07:51:20.992Z,84.30
2019-04-29T07:51:59.740Z,83.90
2019-04-29T07:52:38.470Z,84.30
2019-04-29T07:53:21.451Z,83.80
2019-04-29T07:53:57.132Z,82.90
2019-04-29T07:54:35.882Z,83.70
2019-04-29T07:55:14.516Z,84.40
2019-04-29T07:55:53.223Z,84.30
2019-04-29T07:56:31.889Z,84.00
2019-04-29T07:57:12.458Z,84.20
2019-04-29T07:57:52.179Z,84.80
2019-04-29T07:58:30.532Z,84.10
2019-04-29T07:59:11.214Z,84.50
2019-04-29T07:59:49.188Z,84.20
2019-04-29T08:00:36.519Z,84.30
2019-04-29T08:01:15.184Z,84.60
2019-04-29T08:01:55.733Z,84.70
2019-04-29T08:02:33.808Z,85.00
2019-04-29T08:03:12.528Z,84.60
2019-04-29T08:03:51.218Z,85.20
2019-04-29T08:04:29.909Z,84.50
2019-04-29T08:05:08.633Z,84.60
2019-04-29T08:05:47.250Z,85.10
2019-04-29T08:06:25.911Z,85.40
2019-04-29T08:07:04.654Z,86.00
2019-04-29T08:07:43.406Z,85.40
2019-04-29T08:08:22.835Z,85.90
2019-04-29T08:09:07.459Z,86.00
2019-04-29T08:09:44.148Z,87.00
2019-04-29T08:10:23.727Z,85.80
2019-04-29T08:11:01.675Z,87.30
2019-04-29T08:11:40.864Z,86.40
2019-04-29T08:12:19.602Z,86.90
2019-04-29T08:12:58.869Z,86.80
2019-04-29T08:13:37.703Z,86.40
2019-04-29T08:14:16.807Z,86.80
2019-04-29T08:14:58.574Z,87.20
2019-04-29T08:15:41.426Z,86.80
2019-04-29T08:16:18.523Z,87.20
2019-04-29T08:16:57.419Z,87.80
2019-04-29T08:17:36.105Z,87.80
2019-04-29T08:18:16.263Z,88.00
2019-04-29T08:18:55.741Z,87.80
2019-04-29T08:19:34.463Z,87.60
2019-04-29T08:20:13.177Z,88.00
2019-04-29T08:20:51.899Z,87.80
2019-04-29T08:21:30.580Z,88.00
2019-04-29T08:22:09.254Z,87.20
2019-04-29T08:22:47.871Z,87.50
2019-04-29T08:23:26.511Z,87.00
2019-04-29T08:24:05.176Z,87.50
2019-04-29T08:24:46.035Z,87.80
2019-04-29T08:25:26.021Z,86.70
2019-04-29T08:26:04.526Z,87.60
2019-04-29T08:26:47.486Z,86.70
2019-04-29T08:27:23.423Z,87.30
2019-04-29T08:28:02.119Z,87.90
2019-04-29T08:28:40.804Z,87.70
2019-04-29T08:29:19.521Z,87.40
2019-04-29T08:29:58.176Z,86.40
2019-04-29T08:30:36.942Z,87.10
2019-04-29T08:31:16.569Z,85.90
2019-04-29T08:31:57.309Z,85.50
2019-04-29T08:32:36.361Z,86.20
2019-04-29T08:33:15.623Z,86.80
2019-04-29T08:33:54.367Z,85.80
2019-04-29T08:34:33.033Z,86.60
2019-04-29T08:35:11.665Z,86.50
2019-04-29T08:35:50.347Z,86.80
2019-04-29T08:36:32.395Z,86.70
2019-04-29T08:37:11.069Z,86.90
2019-04-29T08:37:50.257Z,86.80
2019-04-29T08:38:28.975Z,86.60
2019-04-29T08:39:08.945Z,85.90
2019-04-29T08:40:03.456Z,85.90
2019-04-29T08:40:27.741Z,85.00
2019-04-29T08:41:06.420Z,85.30
2019-04-29T08:41:45.126Z,85.20
2019-04-29T08:42:27.200Z,85.60
2019-04-29T08:43:32.751Z,85.70